Time;durP1;ratioP1;P1;durP2;ratioP2;P2;SDS_P1;SDS_P2;PMS_P1;PMS_P2;Temp;Humidity;BMP_temperature;BMP_pressure;BME280_temperature;BME280_humidity;BME280_pressure;Samples;Min_cycle;Max_cycle;Signal;HPM_P1;HPM_P2
2023/01/18 00:01:10;;;;;;;;;22.00;14.00;;;;;4.10;71.55;98508.50;5056108;28;45583;-79
2023/01/18 00:03:39;;;;;;;;;16.50;14.00;;;;;4.10;71.39;98525.84;5073669;28;45475;-78
2023/01/18 00:06:06;;;;;;;;;14.00;13.00;;;;;4.07;71.02;98518.31;5074450;28;45592;-79
2023/01/18 00:08:33;;;;;;;;;15.00;13.25;;;;;4.00;70.91;98506.75;5073389;28;45573;-78
2023/01/18 00:11:04;;;;;;;;;9.50;7.25;;;;;4.00;71.32;98517.94;5074442;28;45914;-78
2023/01/18 00:13:30;;;;;;;;;13.75;12.75;;;;;3.94;70.54;98526.19;5074090;28;45873;-76
2023/01/18 00:16:16;;;;;;;;;14.00;11.00;;;;;3.95;70.69;98535.63;5073130;28;46364;-78
2023/01/18 00:18:42;;;;;;;;;12.50;10.25;;;;;3.75;70.81;98516.44;5074344;28;46171;-77
2023/01/18 00:21:10;;;;;;;;;17.50;14.75;;;;;3.86;71.40;98538.09;5074604;28;45871;-77
2023/01/18 00:23:37;;;;;;;;;15.50;12.00;;;;;3.81;70.81;98538.47;5074066;28;45708;-77
2023/01/18 00:26:07;;;;;;;;;16.25;15.50;;;;;3.66;71.13;98518.91;5074149;28;45571;-77
2023/01/18 00:28:33;;;;;;;;;20.50;15.50;;;;;3.63;70.94;98529.50;5074377;28;45707;-78
2023/01/18 00:30:59;;;;;;;;;15.50;15.50;;;;;3.61;71.35;98529.63;5074101;28;45919;-78
2023/01/18 00:33:25;;;;;;;;;13.25;12.00;;;;;3.65;71.77;98543.16;5074218;28;45521;-78
2023/01/18 00:35:58;;;;;;;;;17.25;13.00;;;;;3.64;71.33;98552.69;5073763;28;45533;-77
2023/01/18 00:38:24;;;;;;;;;13.50;13.00;;;;;3.64;72.16;98560.47;5073602;28;46792;-79
2023/01/18 00:40:50;;;;;;;;;18.50;13.00;;;;;3.66;71.52;98547.41;5073896;28;45689;-76
2023/01/18 00:46:00;;;;;;;;;18.00;16.00;;;;;3.44;71.71;98529.25;5073416;28;45617;-78
2023/01/18 00:48:25;;;;;;;;;18.50;13.50;;;;;3.55;71.80;98565.50;5073889;28;45690;-77
2023/01/18 00:50:50;;;;;;;;;17.25;14.25;;;;;3.46;72.01;98548.06;5073850;28;45621;-79
2023/01/18 00:53:16;;;;;;;;;17.25;13.00;;;;;3.34;71.78;98536.88;5073775;28;45705;-77
2023/01/18 00:55:41;;;;;;;;;19.00;16.00;;;;;3.49;72.06;98569.38;5073495;28;46471;-78
2023/01/18 00:58:07;;;;;;;;;16.00;14.25;;;;;3.49;72.50;98568.56;5073846;28;45652;-76
2023/01/18 01:00:32;;;;;;;;;16.50;15.00;;;;;3.42;72.16;98568.19;5074117;28;45611;-75
2023/01/18 01:06:43;;;;;;;;;19.25;16.00;;;;;3.44;72.27;98579.25;5061858;28;46144;-77
2023/01/18 01:09:28;;;;;;;;;13.25;12.00;;;;;3.46;72.46;98581.72;5073197;28;45521;-77
2023/01/18 01:26:03;;;;;;;;;12.00;10.25;;;;;3.34;72.50;98620.53;5090223;27;45656;-77
2023/01/18 01:28:28;;;;;;;;;20.50;15.50;;;;;3.33;72.41;98620.63;5075936;28;46784;-77
2023/01/18 01:30:59;;;;;;;;;21.50;15.25;;;;;3.24;72.25;98605.78;5077061;28;45924;-76
2023/01/18 01:33:25;;;;;;;;;21.00;16.75;;;;;3.30;72.09;98619.06;5076488;28;45689;-76
2023/01/18 01:35:54;;;;;;;;;27.75;19.00;;;;;3.26;72.51;98617.66;5076800;28;45695;-76
2023/01/18 01:38:20;;;;;;;;;21.50;15.75;;;;;3.30;72.63;98619.06;5076583;28;46974;-78
2023/01/18 01:40:55;;;;;;;;;14.50;14.25;;;;;3.23;72.28;98614.47;5076849;28;45607;-78
2023/01/18 01:43:45;;;;;;;;;20.00;17.00;;;;;3.20;72.55;98620.69;5076768;28;45577;-76
2023/01/18 01:49:33;;;;;;;;;17.25;15.75;;;;;3.21;72.47;98644.81;5077474;28;46105;-77
2023/01/18 01:52:04;;;;;;;;;16.00;15.00;;;;;3.19;72.67;98639.72;5076446;28;47124;-77
2023/01/18 01:54:56;;;;;;;;;20.00;17.25;;;;;3.17;72.60;98640.78;5076669;28;45475;-77
2023/01/18 01:57:26;;;;;;;;;16.50;14.00;;;;;3.17;72.80;98643.38;5076819;28;45826;-76
2023/01/18 01:59:59;;;;;;;;;20.00;17.00;;;;;3.18;72.36;98650.22;5058157;28;47286;-78
2023/01/18 02:05:51;;;;;;;;;17.00;13.00;;;;;3.15;72.33;98665.94;5076069;28;45834;-77
2023/01/18 02:08:21;;;;;;;;;17.75;15.75;;;;;3.14;72.57;98654.75;5076408;28;45724;-77
2023/01/18 02:10:47;;;;;;;;;15.50;12.50;;;;;3.14;72.91;98662.53;5076214;28;46270;-77
2023/01/18 02:13:15;;;;;;;;;16.00;14.25;;;;;3.14;72.66;98665.09;5076314;28;46291;-76
2023/01/18 02:15:47;;;;;;;;;12.75;10.75;;;;;3.10;72.83;98649.94;5076280;28;45657;-76
2023/01/18 02:21:41;;;;;;;;;15.50;12.25;;;;;3.18;72.72;98666.56;5076093;28;46038;-78
2023/01/18 02:24:25;;;;;;;;;13.50;12.50;;;;;3.20;73.16;98664.66;5076072;28;46025;-78
2023/01/18 02:26:57;;;;;;;;;9.00;9.00;;;;;3.24;72.87;98670.47;5075075;28;45462;-76
2023/01/18 02:29:31;;;;;;;;;15.25;13.00;;;;;3.24;72.46;98670.47;5077131;28;45634;-76
2023/01/18 02:32:14;;;;;;;;;10.50;10.00;;;;;3.25;72.60;98669.50;5078395;28;46481;-77
2023/01/18 02:34:56;;;;;;;;;12.50;8.25;;;;;3.19;72.81;98657.84;5074762;28;46328;-78
2023/01/18 02:38:12;;;;;;;;;9.25;7.50;;;;;3.29;72.59;98674.34;5077397;28;46002;-77
2023/01/18 02:41:11;;;;;;;;;12.00;8.25;;;;;3.30;72.68;98676.00;5033934;28;45700;-75
2023/01/18 02:46:34;;;;;;;;;7.75;7.00;;;;;3.17;72.43;98659.72;5033256;28;45783;-77
2023/01/18 02:49:07;;;;;;;;;8.25;8.25;;;;;3.27;72.50;98672.81;5033347;28;45698;-78
2023/01/18 02:51:33;;;;;;;;;8.50;7.50;;;;;3.29;73.21;98676.94;5033517;28;46020;-77
2023/01/18 02:54:00;;;;;;;;;7.25;5.50;;;;;3.38;73.05;98691.81;5033301;28;45759;-77
2023/01/18 02:56:46;;;;;;;;;13.00;8.50;;;;;3.42;72.43;98699.34;5032989;28;45765;-78
2023/01/18 02:59:20;;;;;;;;;8.00;7.75;;;;;3.41;72.22;98689.91;5033144;28;45737;-78
2023/01/18 03:01:51;;;;;;;;;10.00;7.25;;;;;3.29;71.88;98684.69;5033067;28;45582;-77
2023/01/18 03:04:23;;;;;;;;;7.50;7.25;;;;;3.40;72.15;98703.81;5032323;28;45736;-78
2023/01/18 03:06:56;;;;;;;;;1.50;1.50;;;;;3.38;72.29;98702.16;5032284;28;46563;-77
2023/01/18 03:09:26;;;;;;;;;5.50;5.50;;;;;3.38;72.04;98703.94;5032483;28;45783;-79
2023/01/18 03:12:07;;;;;;;;;10.25;7.00;;;;;3.41;72.22;98721.81;5065789;28;45758;-77
2023/01/18 03:14:49;;;;;;;;;6.75;5.50;;;;;3.40;71.90;98717.59;5074924;28;47371;-76
2023/01/18 03:20:41;;;;;;;;;7.00;5.25;;;;;3.35;71.63;98723.06;5075176;28;45908;-77
2023/01/18 03:26:05;;;;;;;;;10.00;8.25;;;;;3.33;71.64;98729.31;5074739;28;45585;-79
2023/01/18 03:37:38;;;;;;;;;15.50;8.50;;;;;3.18;71.99;98727.81;5074422;28;45485;-77
2023/01/18 03:40:09;;;;;;;;;11.00;8.50;;;;;3.22;71.74;98740.44;5074781;28;46141;-76
2023/01/18 03:42:47;;;;;;;;;8.00;7.50;;;;;3.21;72.08;98740.53;5075469;28;45756;-79
2023/01/18 03:45:17;;;;;;;;;16.25;12.50;;;;;3.19;72.30;98742.38;5076404;28;45842;-76
2023/01/18 03:47:43;;;;;;;;;17.00;14.00;;;;;3.12;72.81;98734.25;5075810;28;45556;-78
2023/01/18 03:50:09;;;;;;;;;14.00;11.50;;;;;2.93;72.56;98718.38;5075102;28;45483;-78
2023/01/18 03:52:40;;;;;;;;;13.50;13.00;;;;;3.14;72.75;98762.59;5074865;28;45780;-77
2023/01/18 03:55:19;;;;;;;;;16.75;15.00;;;;;3.09;72.45;98767.25;5074734;28;45554;-78
2023/01/18 03:58:01;;;;;;;;;14.25;12.75;;;;;2.99;73.02;98758.50;5074290;28;47279;-75
2023/01/18 04:00:26;;;;;;;;;18.50;15.00;;;;;2.96;72.75;98762.13;5056041;28;48454;-78
2023/01/18 04:02:52;;;;;;;;;16.00;14.75;;;;;2.96;72.67;98788.00;5074629;28;45714;-78
2023/01/18 04:05:18;;;;;;;;;15.25;15.00;;;;;2.89;72.85;98787.59;5074763;28;45514;-77
2023/01/18 04:07:43;;;;;;;;;20.50;16.00;;;;;2.74;72.90;98773.13;5034144;28;46456;-77
2023/01/18 04:10:10;;;;;;;;;9.00;8.50;;;;;2.81;72.86;98792.44;5034414;28;45538;-77
2023/01/18 04:12:35;;;;;;;;;18.00;15.00;;;;;2.80;73.04;98797.75;5034070;28;45551;-78
2023/01/18 04:15:02;;;;;;;;;16.00;12.25;;;;;2.75;73.28;98784.31;5034153;28;45664;-76
2023/01/18 04:17:27;;;;;;;;;14.50;12.75;;;;;2.74;73.00;98809.31;5034077;28;46821;-77
2023/01/18 04:23:14;;;;;;;;;19.50;15.50;;;;;2.63;73.20;98821.31;5033694;28;45914;-77
2023/01/18 04:25:44;;;;;;;;;22.00;18.00;;;;;2.42;73.25;98788.25;5034081;28;45783;-78
2023/01/18 04:28:10;;;;;;;;;16.50;13.50;;;;;2.51;73.32;98807.47;5033603;28;47413;-77
2023/01/18 04:30:35;;;;;;;;;15.75;13.00;;;;;2.50;73.40;98823.88;5033855;28;45506;-77
2023/01/18 04:33:00;;;;;;;;;17.75;15.00;;;;;2.44;73.29;98825.13;5033573;28;45598;-77
2023/01/18 04:35:26;;;;;;;;;18.25;15.00;;;;;2.44;73.67;98827.72;5033817;28;45590;-78
2023/01/18 04:37:52;;;;;;;;;17.00;14.00;;;;;2.41;73.74;98822.75;5033534;28;45620;-76
2023/01/18 04:40:17;;;;;;;;;15.25;11.00;;;;;2.41;73.92;98829.69;5033405;28;46896;-77
2023/01/18 04:42:43;;;;;;;;;22.00;16.00;;;;;2.37;73.63;98828.22;5033776;28;45511;-78
2023/01/18 04:45:12;;;;;;;;;16.50;12.50;;;;;2.40;73.74;98849.53;5032073;28;45519;-77
2023/01/18 04:47:38;;;;;;;;;10.00;9.00;;;;;2.40;73.63;98851.28;5033080;28;45666;-77
2023/01/18 04:53:24;;;;;;;;;12.75;12.00;;;;;2.35;73.75;98846.41;5033120;28;45872;-77
2023/01/18 04:55:50;;;;;;;;;12.00;9.75;;;;;2.28;73.68;98836.56;5033577;28;45662;-76
2023/01/18 04:58:16;;;;;;;;;16.00;12.50;;;;;2.37;73.60;98851.50;5033470;28;46231;-76
2023/01/18 05:00:41;;;;;;;;;12.25;10.00;;;;;2.36;74.01;98849.81;5033430;28;46849;-78
2023/01/18 05:03:07;;;;;;;;;16.00;9.75;;;;;2.38;73.96;98851.38;5033434;28;45653;-75
2023/01/18 05:05:33;;;;;;;;;6.00;0.75;;;;;2.40;73.98;98851.28;5037716;28;45847;-76
2023/01/18 05:07:58;;;;;;;;;15.00;12.00;;;;;2.43;73.87;98859.63;5074126;28;46270;-78
2023/01/18 05:10:23;;;;;;;;;15.00;12.75;;;;;2.44;73.99;98863.88;5073788;28;46022;-78
2023/01/18 05:12:50;;;;;;;;;13.00;10.00;;;;;2.46;74.00;98858.63;5073753;28;45659;-78
2023/01/18 05:15:17;;;;;;;;;10.00;9.00;;;;;2.41;73.96;98848.59;5074154;28;45471;-78
2023/01/18 05:17:42;;;;;;;;;16.00;13.50;;;;;2.40;73.54;98848.69;5073346;28;47561;-78
2023/01/18 05:23:29;;;;;;;;;12.50;9.25;;;;;2.47;73.92;98866.28;5072128;28;46099;-78
2023/01/18 05:25:56;;;;;;;;;14.00;13.50;;;;;2.47;73.57;98873.22;5072047;28;45563;-79
2023/01/18 05:28:24;;;;;;;;;12.50;12.25;;;;;2.42;73.89;98870.94;5072108;28;45673;-78
2023/01/18 05:30:50;;;;;;;;;11.50;10.00;;;;;2.46;74.04;98880.13;5071576;28;47339;-77
2023/01/18 05:39:44;;;;;;;;;12.50;9.50;;;;;2.49;74.18;98886.84;5071799;28;45620;-79
2023/01/18 05:42:10;;;;;;;;;10.50;9.00;;;;;2.50;73.61;98891.06;5072418;28;45891;-78
2023/01/18 05:44:36;;;;;;;;;12.75;12.50;;;;;2.44;74.06;98881.13;5071535;28;45843;-77
2023/01/18 05:47:01;;;;;;;;;12.50;12.00;;;;;2.47;74.16;98901.63;5072846;28;45711;-78
2023/01/18 05:49:31;;;;;;;;;16.00;10.00;;;;;2.50;73.70;98910.00;5053805;28;46365;-79
2023/01/18 05:51:56;;;;;;;;;9.75;7.00;;;;;2.53;73.65;98915.00;5071170;28;46175;-76
2023/01/18 05:54:22;;;;;;;;;12.00;9.75;;;;;2.54;73.81;98923.53;5071158;28;45674;-78
2023/01/18 05:56:47;;;;;;;;;14.00;12.00;;;;;2.52;73.93;98913.31;5071443;28;45879;-77
2023/01/18 05:59:14;;;;;;;;;12.75;11.50;;;;;2.53;73.69;98917.56;5052981;28;48232;-76
2023/01/18 06:01:41;;;;;;;;;13.50;12.25;;;;;2.56;74.05;98928.63;5073356;28;46291;-78
2023/01/18 06:04:06;;;;;;;;;13.50;11.50;;;;;2.55;73.81;98930.38;5073825;28;45663;-78
2023/01/18 06:06:33;;;;;;;;;14.50;11.00;;;;;2.54;73.94;98928.72;5075009;28;45649;-78
2023/01/18 06:09:00;;;;;;;;;7.50;7.00;;;;;2.54;73.77;98937.28;5075011;28;47216;-77
2023/01/18 06:11:25;;;;;;;;;15.50;10.50;;;;;2.37;73.58;98914.31;5074649;28;46911;-78
2023/01/18 06:13:51;;;;;;;;;13.00;12.00;;;;;2.53;73.67;98938.25;5056179;28;45579;-78
2023/01/18 06:16:16;;;;;;;;;11.00;9.75;;;;;2.54;73.64;98932.13;5075206;28;45893;-76
2023/01/18 06:18:42;;;;;;;;;10.50;7.00;;;;;2.54;73.46;98952.81;5074959;28;45824;-77
2023/01/18 06:24:28;;;;;;;;;10.00;9.00;;;;;2.54;73.26;98964.91;5074134;28;45614;-77
2023/01/18 06:26:54;;;;;;;;;15.75;12.50;;;;;2.52;73.45;98966.78;5074410;28;45856;-75
2023/01/18 06:29:19;;;;;;;;;12.00;10.67;;;;;2.52;74.00;98970.19;5072699;28;46696;-76
2023/01/18 06:31:44;;;;;;;;;12.75;12.00;;;;;2.53;73.72;98981.34;5075388;28;45815;-78
2023/01/18 06:34:10;;;;;;;;;12.25;10.00;;;;;2.49;73.44;98982.47;5074684;28;45863;-77
2023/01/18 06:36:36;;;;;;;;;11.50;9.75;;;;;2.47;73.58;98982.56;5073928;28;45746;-77
2023/01/18 06:39:02;;;;;;;;;13.75;12.00;;;;;2.46;73.18;98988.66;5074268;28;46353;-77
2023/01/18 06:41:28;;;;;;;;;11.25;9.00;;;;;2.40;73.36;98973.56;5073801;28;46586;-76
2023/01/18 06:43:53;;;;;;;;;12.50;9.25;;;;;2.43;73.95;98982.88;5073613;28;45732;-77
2023/01/18 06:46:19;;;;;;;;;13.25;10.00;;;;;2.48;73.86;99004.88;5074495;28;45822;-77
2023/01/18 06:48:44;;;;;;;;;10.25;9.75;;;;;2.49;73.44;99014.28;5075839;28;45796;-76
2023/01/18 06:54:32;;;;;;;;;15.00;12.00;;;;;2.49;74.12;99008.28;5076727;28;45646;-77
2023/01/18 06:56:57;;;;;;;;;12.50;9.00;;;;;2.49;74.28;99016.88;5074168;28;45693;-76
2023/01/18 06:59:22;;;;;;;;;15.25;12.50;;;;;2.51;74.33;99017.63;5055537;28;48556;-76
2023/01/18 07:01:51;;;;;;;;;15.50;8.50;;;;;2.53;74.56;99020.13;5073476;28;46291;-77
2023/01/18 07:04:16;;;;;;;;;16.00;12.00;;;;;2.52;74.47;99014.13;5073487;28;46152;-76
2023/01/18 07:10:17;;;;;;;;;13.50;10.50;;;;;2.58;74.90;99025.00;5064535;28;45984;-77
2023/01/18 07:12:46;;;;;;;;;16.00;13.00;;;;;2.60;74.64;99031.72;5071295;28;46926;-78
2023/01/18 07:15:13;;;;;;;;;15.00;13.50;;;;;2.50;74.76;99021.13;5073678;28;45825;-77
2023/01/18 07:17:38;;;;;;;;;19.00;15.50;;;;;2.59;74.28;99042.16;5055285;28;45954;-76
2023/01/18 07:20:04;;;;;;;;;16.25;15.25;;;;;2.50;74.22;99031.47;5073436;28;47278;-78
2023/01/18 07:22:31;;;;;;;;;18.75;15.75;;;;;2.58;74.50;99046.50;5072563;28;47468;-78
2023/01/18 07:24:56;;;;;;;;;18.00;13.50;;;;;2.58;74.72;99054.25;5073100;28;45949;-78
2023/01/18 07:27:22;;;;;;;;;19.75;17.50;;;;;2.51;74.16;99048.63;5073203;28;45663;-77
2023/01/18 07:29:47;;;;;;;;;11.00;9.75;;;;;2.53;74.15;99064.06;5072723;28;46261;-77
2023/01/18 07:32:12;;;;;;;;;16.50;13.00;;;;;2.48;74.22;99059.16;5073404;28;45575;-77
2023/01/18 07:34:38;;;;;;;;;18.00;15.25;;;;;2.34;74.33;99054.03;5054654;28;45811;-77
2023/01/18 07:40:25;;;;;;;;;13.00;13.00;;;;;2.41;74.66;99080.31;5072937;28;45833;-79
2023/01/18 07:42:57;;;;;;;;;21.00;18.00;;;;;2.40;75.11;99076.91;5074127;28;46574;-76
2023/01/18 07:45:22;;;;;;;;;19.00;16.00;;;;;2.42;74.92;99082.00;5073004;28;45589;-74
2023/01/18 07:47:48;;;;;;;;;19.75;17.50;;;;;2.31;74.60;99067.16;5074332;28;45813;-76
2023/01/18 07:50:14;;;;;;;;;22.25;17.50;;;;;2.45;74.72;99092.13;5073692;28;46433;-77
2023/01/18 07:52:40;;;;;;;;;21.00;17.50;;;;;2.53;74.82;99108.00;5072868;28;47543;-75
2023/01/18 07:55:07;;;;;;;;;20.00;18.00;;;;;2.45;74.75;99107.63;5073275;28;45605;-75
2023/01/18 07:57:33;;;;;;;;;26.50;21.00;;;;;2.48;74.47;99103.09;5073588;28;46103;-77
2023/01/18 07:59:58;;;;;;;;;22.25;19.00;;;;;2.52;74.63;99109.75;5054531;28;47295;-76
2023/01/18 08:02:24;;;;;;;;;16.00;16.00;;;;;2.52;74.70;99112.34;5072516;28;46812;-75
2023/01/18 08:04:49;;;;;;;;;17.00;16.00;;;;;2.53;74.54;99113.16;5074045;28;45648;-79
2023/01/18 08:10:37;;;;;;;;;19.50;15.00;;;;;2.56;75.10;99127.63;5068803;28;45968;-75
2023/01/18 08:13:04;;;;;;;;;24.75;20.00;;;;;2.58;74.94;99120.63;5073288;28;46437;-76
2023/01/18 08:15:30;;;;;;;;;21.50;21.00;;;;;2.50;74.84;99103.84;5073288;28;45827;-77
2023/01/18 08:17:55;;;;;;;;;22.50;20.75;;;;;2.58;75.18;99121.47;5073839;28;45767;-76
2023/01/18 08:20:21;;;;;;;;;21.00;18.50;;;;;2.64;75.06;99138.34;5072818;28;47347;-76
2023/01/18 08:26:13;;;;;;;;;25.00;24.00;;;;;2.68;74.80;99144.97;5074438;28;45747;-77
2023/01/18 08:28:40;;;;;;;;;24.50;19.25;;;;;2.46;74.59;99107.53;5073645;28;45836;-74
2023/01/18 08:31:05;;;;;;;;;19.75;19.75;;;;;2.73;74.50;99145.50;5073150;28;46454;-77
2023/01/18 08:33:35;;;;;;;;;19.00;18.00;;;;;2.60;74.93;99129.09;5072537;28;47242;-74
2023/01/18 08:36:00;;;;;;;;;21.25;17.00;;;;;2.69;75.10;99138.88;5072599;28;46236;-75
2023/01/18 08:38:25;;;;;;;;;25.50;18.25;;;;;2.69;74.94;99136.31;5072957;28;45667;-75
2023/01/18 08:40:51;;;;;;;;;27.75;23.50;;;;;2.69;74.83;99138.88;5072598;28;45737;-76
2023/01/18 08:43:17;;;;;;;;;17.50;14.50;;;;;2.77;74.79;99152.16;5072325;28;45860;-73
2023/01/18 08:45:42;;;;;;;;;17.50;15.50;;;;;2.70;75.02;99128.44;5072524;28;45872;-74
2023/01/18 08:48:10;;;;;;;;;19.25;17.00;;;;;2.88;74.71;99154.88;5071179;28;46024;-76
2023/01/18 08:50:36;;;;;;;;;19.00;16.00;;;;;2.81;74.94;99151.03;5054245;28;48355;-75
2023/01/18 08:56:23;;;;;;;;;23.25;22.00;;;;;2.95;74.47;99175.13;5072143;28;45978;-76
2023/01/18 08:58:50;;;;;;;;;19.00;17.00;;;;;2.92;74.80;99170.13;5072818;28;45470;-76
2023/01/18 09:01:17;;;;;;;;;21.00;18.00;;;;;2.99;74.71;99185.25;5072002;28;46479;-76
2023/01/18 09:03:43;;;;;;;;;23.75;19.75;;;;;2.97;74.45;99177.59;5071781;28;46190;-75
2023/01/18 09:06:10;;;;;;;;;14.50;14.00;;;;;3.05;74.61;99197.81;5072813;28;45680;-75
2023/01/18 09:08:37;;;;;;;;;20.75;19.50;;;;;3.07;73.86;99203.72;5072483;28;45914;-76
2023/01/18 09:11:04;;;;;;;;;30.50;23.50;;;;;2.97;74.05;99209.44;5073447;28;46409;-78
2023/01/18 09:13:31;;;;;;;;;26.00;23.00;;;;;3.06;73.93;99225.34;5073457;28;46758;-75
2023/01/18 09:15:58;;;;;;;;;14.75;10.75;;;;;3.06;73.99;99218.41;5074727;28;45815;-77
2023/01/18 09:18:24;;;;;;;;;24.00;21.25;;;;;3.05;74.03;99221.91;5071861;28;45913;-78
2023/01/18 09:20:50;;;;;;;;;11.50;5.25;;;;;3.06;74.03;99225.34;5072082;28;45766;-76
2023/01/18 09:26:37;;;;;;;;;22.50;20.75;;;;;3.08;73.44;99250.16;5071833;28;45676;-74
2023/01/18 09:29:02;;;;;;;;;22.25;17.25;;;;;3.04;73.70;99243.53;5072600;28;45855;-78
2023/01/18 09:31:28;;;;;;;;;25.50;19.00;;;;;2.97;73.27;99243.06;5073071;28;47555;-76
2023/01/18 09:33:57;;;;;;;;;23.25;19.25;;;;;3.05;73.56;99246.94;5071890;28;45832;-78
2023/01/18 09:36:25;;;;;;;;;24.50;22.50;;;;;3.07;74.10;99253.72;5074658;28;46019;-77
2023/01/18 09:38:51;;;;;;;;;26.75;19.50;;;;;2.98;73.45;99241.31;5075378;28;45792;-77
2023/01/18 09:41:37;;;;;;;;;20.50;16.00;;;;;3.07;73.34;99258.88;5075271;28;45756;-76
2023/01/18 09:44:16;;;;;;;;;22.00;16.75;;;;;3.08;73.17;99268.28;5075619;28;46446;-76
2023/01/18 09:46:44;;;;;;;;;18.50;17.75;;;;;3.09;73.48;99263.94;5075966;28;45802;-74
2023/01/18 09:49:18;;;;;;;;;22.25;18.00;;;;;3.09;73.41;99267.34;5076532;28;45622;-75
2023/01/18 09:52:18;;;;;;;;;20.75;18.25;;;;;3.18;73.40;99281.50;5075445;28;46362;-74
2023/01/18 09:55:08;;;;;;;;;20.75;17.25;;;;;3.19;73.16;99281.38;5065863;28;45644;-76
2023/01/18 09:57:54;;;;;;;;;20.25;20.25;;;;;3.26;73.47;99287.00;5075228;28;45487;-75
2023/01/18 10:00:27;;;;;;;;;20.25;18.25;;;;;3.27;72.63;99280.91;5074758;28;45603;-75
2023/01/18 10:02:59;;;;;;;;;15.50;14.25;;;;;3.23;72.98;99275.13;5075087;28;45727;-76
2023/01/18 10:05:33;;;;;;;;;17.00;14.00;;;;;3.24;73.26;99273.34;5075194;28;46197;-75
2023/01/18 10:08:06;;;;;;;;;16.25;13.00;;;;;3.43;72.58;99293.72;5057951;28;45944;-75
2023/01/18 10:10:43;;;;;;;;;16.00;13.00;;;;;3.43;72.48;99288.53;5076584;28;45760;-76
2023/01/18 10:13:37;;;;;;;;;14.00;10.75;;;;;3.53;72.65;99312.91;5075476;28;46325;-77
2023/01/18 10:16:07;;;;;;;;;15.00;11.25;;;;;3.54;72.27;99307.66;5074664;28;47016;-74
2023/01/18 10:18:38;;;;;;;;;11.00;10.50;;;;;3.44;72.69;99282.44;5075290;28;45641;-78
2023/01/18 10:21:06;;;;;;;;;7.50;7.50;;;;;3.59;72.54;99303.00;5075187;28;45759;-77
2023/01/18 10:23:45;;;;;;;;;12.00;8.50;;;;;3.61;72.73;99305.50;5074914;28;46685;-79
2023/01/18 10:26:28;;;;;;;;;14.50;12.00;;;;;3.63;72.43;99309.66;5074815;28;46174;-76
2023/01/18 10:29:20;;;;;;;;;8.00;8.00;;;;;3.60;72.04;99296.91;5074402;28;46043;-75
2023/01/18 10:32:02;;;;;;;;;17.50;12.50;;;;;3.72;72.79;99318.63;5075354;28;45877;-78
2023/01/18 10:34:33;;;;;;;;;7.50;7.50;;;;;3.74;72.54;99316.75;5074969;28;47931;-75
2023/01/18 10:40:22;;;;;;;;;11.00;8.00;;;;;3.78;72.47;99305.25;5074827;28;45518;-74
2023/01/18 10:42:51;;;;;;;;;10.00;8.00;;;;;3.93;72.04;99316.41;5074756;28;45770;-76
2023/01/18 10:45:20;;;;;;;;;5.00;5.00;;;;;3.97;72.52;99313.50;5090844;27;46419;-77
2023/01/18 10:47:50;;;;;;;;;13.50;10.00;;;;;3.97;72.51;99310.09;5073957;28;46068;-76
2023/01/18 10:50:36;;;;;;;;;10.25;7.50;;;;;4.05;72.35;99321.59;5075756;28;45645;-76
2023/01/18 10:56:26;;;;;;;;;11.50;10.00;;;;;3.89;72.14;99278.69;5074335;28;45963;-75
2023/01/18 10:58:56;;;;;;;;;7.50;7.25;;;;;4.15;72.51;99320.09;5074769;28;46363;-75
2023/01/18 11:01:33;;;;;;;;;5.00;4.50;;;;;4.18;72.24;99306.91;5075535;28;46023;-74
2023/01/18 11:04:19;;;;;;;;;7.75;6.50;;;;;4.21;72.71;99303.31;5075685;28;45818;-76
2023/01/18 11:06:56;;;;;;;;;7.00;5.50;;;;;4.07;72.58;99267.91;5076839;28;45757;-75
2023/01/18 11:09:49;;;;;;;;;5.00;2.00;;;;;4.33;72.33;99309.41;5076841;28;46168;-78
2023/01/18 11:12:35;;;;;;;;;6.50;6.50;;;;;4.39;72.47;99314.19;5075849;28;45903;-75
2023/01/18 11:15:13;;;;;;;;;6.50;5.00;;;;;4.43;72.44;99308.69;5075804;28;45700;-77
2023/01/18 11:17:59;;;;;;;;;4.50;4.50;;;;;4.48;72.60;99316.19;5074655;28;46536;-77
2023/01/18 11:20:46;;;;;;;;;4.75;4.00;;;;;4.55;72.37;99309.66;5075170;28;46624;-77
2023/01/18 11:23:21;;;;;;;;;4.50;4.50;;;;;4.61;72.42;99304.88;5074792;28;46211;-75
2023/01/18 11:25:49;;;;;;;;;4.75;4.00;;;;;4.57;72.22;99295.66;5075209;28;45729;-76
2023/01/18 11:28:24;;;;;;;;;5.00;5.00;;;;;4.63;71.96;99303.03;5075185;28;45894;-80
2023/01/18 11:30:54;;;;;;;;;7.75;5.00;;;;;4.64;71.63;99289.09;5074439;28;46333;-77
2023/01/18 11:33:21;;;;;;;;;4.75;4.50;;;;;4.65;71.52;99292.53;5073720;28;45744;-76
2023/01/18 11:35:53;;;;;;;;;6.50;5.00;;;;;4.50;71.96;99265.06;5074050;28;45670;-78
2023/01/18 11:38:18;;;;;;;;;7.75;5.00;;;;;4.77;71.21;99298.66;5073247;28;45869;-77
2023/01/18 11:40:44;;;;;;;;;7.25;7.00;;;;;4.73;71.82;99279.06;5073573;28;45672;-76
2023/01/18 11:43:16;;;;;;;;;4.25;4.25;;;;;4.86;71.88;99298.84;5073481;28;45654;-77
2023/01/18 11:45:53;;;;;;;;;6.25;4.00;;;;;4.92;71.72;99292.41;5073643;28;45841;-76
2023/01/18 11:48:31;;;;;;;;;4.50;4.50;;;;;4.96;71.34;99293.88;5073411;28;46584;-74
2023/01/18 11:51:18;;;;;;;;;2.00;2.00;;;;;5.00;71.14;99295.31;5073597;28;46119;-74
2023/01/18 11:54:17;;;;;;;;;6.00;4.25;;;;;5.05;71.19;99291.47;5072531;28;45949;-76
2023/01/18 11:56:50;;;;;;;;;4.75;4.00;;;;;5.05;70.75;99285.44;5029934;28;45877;-76
2023/01/18 11:59:44;;;;;;;;;3.00;3.00;;;;;5.08;70.95;99291.25;5030538;28;46783;-76
2023/01/18 12:02:29;;;;;;;;;4.50;1.00;;;;;5.19;71.04;99295.69;4951793;28;45860;-77
2023/01/18 12:05:24;;;;;;;;;7.00;4.00;;;;;5.25;70.82;99297.00;4951984;28;45847;-76
2023/01/18 12:11:43;;;;;;;;;5.25;3.75;;;;;5.35;70.72;99291.06;4949971;28;46116;-80
2023/01/18 12:14:26;;;;;;;;;4.00;2.00;;;;;5.41;69.92;99295.00;4951095;28;46336;-77
2023/01/18 12:17:12;;;;;;;;;4.00;2.00;;;;;5.43;70.09;99291.38;4951007;28;46054;-78
2023/01/18 12:19:57;;;;;;;;;3.00;3.00;;;;;5.47;70.06;99286.78;4951517;28;45817;-77
2023/01/18 12:26:10;;;;;;;;;3.00;1.50;;;;;5.53;69.63;99282.91;4950909;28;45888;-77
2023/01/18 12:28:59;;;;;;;;;4.00;3.00;;;;;5.61;69.44;99288.41;4951631;28;45796;-76
2023/01/18 12:31:49;;;;;;;;;3.50;2.50;;;;;5.65;69.24;99298.47;4950505;28;45806;-76
2023/01/18 12:34:20;;;;;;;;;0.00;0.00;;;;;5.69;69.55;99294.69;4949496;28;47591;-75
2023/01/18 12:36:54;;;;;;;;;4.00;2.00;;;;;5.54;69.15;99258.59;4970069;28;46301;-77
2023/01/18 12:42:53;;;;;;;;;4.00;2.00;;;;;5.82;68.92;99282.47;5072818;28;45971;-75
2023/01/18 12:45:41;;;;;;;;;3.00;1.75;;;;;5.83;68.88;99281.50;5073183;28;46625;-76
2023/01/18 12:48:17;;;;;;;;;1.00;1.00;;;;;5.87;69.01;99292.56;5073044;28;46207;-77
2023/01/18 12:50:48;;;;;;;;;1.75;1.50;;;;;5.86;68.24;99288.28;5072681;28;45680;-75
2023/01/18 12:53:30;;;;;;;;;1.00;1.00;;;;;5.90;69.57;99300.13;5071914;28;45655;-75
2023/01/18 12:56:00;;;;;;;;;2.00;2.00;;;;;5.90;68.12;99300.97;5072276;28;46584;-75
2023/01/18 12:58:26;;;;;;;;;3.00;2.00;;;;;5.89;68.25;99291.50;5072547;28;46665;-74
2023/01/18 13:01:03;;;;;;;;;1.00;1.00;;;;;5.77;68.19;99282.00;5074178;28;45900;-74
2023/01/18 13:03:38;;;;;;;;;2.00;1.75;;;;;5.93;68.31;99294.72;5075328;28;45555;-77
2023/01/18 13:06:03;;;;;;;;;2.00;1.00;;;;;5.91;67.55;99286.19;5072743;28;45714;-75
2023/01/18 13:08:38;;;;;;;;;1.75;0.00;;;;;5.99;67.88;99298.66;5071153;28;47102;-76
2023/01/18 13:11:19;;;;;;;;;0.00;0.00;;;;;6.02;67.95;99298.41;5075592;28;45706;-78
2023/01/18 13:13:45;;;;;;;;;1.00;1.00;;;;;5.94;67.73;99285.16;5075503;28;45873;-79
2023/01/18 13:16:17;;;;;;;;;1.75;1.00;;;;;6.05;67.81;99308.56;5076022;28;46741;-78
2023/01/18 13:18:54;;;;;;;;;1.00;1.00;;;;;6.06;67.67;99308.47;5075992;28;47160;-76
2023/01/18 13:21:31;;;;;;;;;0.00;0.00;;;;;6.09;68.46;99310.84;5076096;28;45768;-78
2023/01/18 13:24:17;;;;;;;;;0.50;0.50;;;;;6.08;67.88;99310.97;5075776;28;45503;-80
2023/01/18 13:26:43;;;;;;;;;1.00;0.00;;;;;6.10;67.53;99309.88;5076068;28;46657;-80
2023/01/18 13:29:28;;;;;;;;;1.00;1.00;;;;;6.14;67.34;99308.75;5075980;28;45859;-80
2023/01/18 13:31:55;;;;;;;;;1.50;1.00;;;;;6.14;67.46;99300.13;5075209;28;45515;-77
2023/01/18 13:34:27;;;;;;;;;1.25;0.25;;;;;6.14;66.77;99294.91;5075762;28;45848;-76
2023/01/18 13:36:53;;;;;;;;;0.25;0.25;;;;;6.17;66.96;99302.47;5075334;28;45547;-76
2023/01/18 13:39:20;;;;;;;;;1.75;0.00;;;;;6.20;66.63;99295.28;5075054;28;45656;-76